createdAt,value
2023-03-05T00:00:56.697Z,42.04
2023-03-05T00:11:03.520Z,42.14
2023-03-05T00:21:10.506Z,42.03
2023-03-05T00:31:17.584Z,41.95
2023-03-05T00:41:24.491Z,41.79
2023-03-05T00:51:31.268Z,41.94
2023-03-05T01:01:38.466Z,41.99
2023-03-05T01:11:45.718Z,42.03
2023-03-05T01:21:52.901Z,41.85
2023-03-05T01:32:00.241Z,41.71
2023-03-05T01:42:06.661Z,41.68
2023-03-05T01:52:13.947Z,41.53
2023-03-05T02:02:21.402Z,41.65
2023-03-05T02:12:28.753Z,41.35
2023-03-05T02:22:36.086Z,41.32
2023-03-05T02:32:43.024Z,41.37
2023-03-05T02:42:50.828Z,41.14
2023-03-05T02:52:58.015Z,41.17
2023-03-05T03:03:05.599Z,41.03
2023-03-05T03:13:13.101Z,40.98
2023-03-05T03:23:20.548Z,40.78
2023-03-05T03:33:27.109Z,40.98
2023-03-05T03:43:34.036Z,40.94
2023-03-05T03:53:41.500Z,40.81
2023-03-05T04:03:48.181Z,40.83
2023-03-05T04:13:55.583Z,40.84
2023-03-05T04:24:02.315Z,40.75
2023-03-05T04:34:09.311Z,40.74
2023-03-05T04:44:16.514Z,40.80
2023-03-05T04:54:23.499Z,40.65
2023-03-05T05:04:30.484Z,40.67
2023-03-05T05:14:37.494Z,40.32
2023-03-05T05:24:44.666Z,40.23
2023-03-05T05:34:51.423Z,40.62
2023-03-05T05:44:58.633Z,40.88
2023-03-05T05:55:06.143Z,41.07
2023-03-05T06:05:12.864Z,42.08
2023-03-05T06:15:20.141Z,43.00
2023-03-05T06:25:27.097Z,43.16
2023-03-05T06:35:34.284Z,43.18
2023-03-05T06:45:40.923Z,43.19
2023-03-05T06:55:48.201Z,42.98
2023-03-05T07:05:55.175Z,42.78
2023-03-05T07:16:02.417Z,42.57
2023-03-05T07:26:08.922Z,42.48
2023-03-05T07:36:15.296Z,42.46
2023-03-05T07:46:21.487Z,42.55
2023-03-05T07:56:28.492Z,42.44
2023-03-05T08:06:35.309Z,41.49
2023-03-05T08:16:42.534Z,42.06
2023-03-05T08:26:49.642Z,41.83
2023-03-05T08:36:56.510Z,41.60
2023-03-05T08:47:03.742Z,41.02
2023-03-05T08:57:10.798Z,40.02
2023-03-05T09:07:17.958Z,39.80
2023-03-05T09:17:25.054Z,39.54
2023-03-05T09:27:31.682Z,39.55
2023-03-05T09:37:38.469Z,39.78
2023-03-05T09:47:45.013Z,40.10
2023-03-05T09:57:52.075Z,39.85
2023-03-05T10:07:59.055Z,40.75
2023-03-05T10:18:06.692Z,40.67
2023-03-05T10:28:13.719Z,40.28
2023-03-05T10:38:20.882Z,39.19
2023-03-05T10:48:27.111Z,30.46
2023-03-05T10:58:34.248Z,34.08
2023-03-05T11:08:41.060Z,37.57
2023-03-05T11:18:47.537Z,38.04
2023-03-05T11:28:54.036Z,38.06
2023-03-05T11:39:01.195Z,38.22
2023-03-05T11:49:08.253Z,36.24
2023-03-05T11:59:15.488Z,37.77
2023-03-05T12:09:22.366Z,38.64
2023-03-05T12:19:29.763Z,39.20
2023-03-05T12:29:36.401Z,39.67
2023-03-05T12:39:44.005Z,39.94
2023-03-05T12:49:51.722Z,40.22
2023-03-05T12:59:59.062Z,40.43
2023-03-05T13:10:05.434Z,40.69
2023-03-05T13:20:12.884Z,40.90
2023-03-05T13:30:19.569Z,41.09
2023-03-05T13:40:26.935Z,41.35
2023-03-05T13:50:33.724Z,41.44
2023-03-05T14:00:40.655Z,41.54
2023-03-05T14:10:47.677Z,41.70
2023-03-05T14:20:54.095Z,41.78
2023-03-05T14:31:01.261Z,41.90
2023-03-05T14:41:07.998Z,41.98
2023-03-05T14:51:15.206Z,42.21
2023-03-05T15:01:22.404Z,42.32
2023-03-05T15:11:29.618Z,42.37
2023-03-05T15:21:37.260Z,42.43
2023-03-05T15:31:44.310Z,42.51
2023-03-05T15:41:51.333Z,42.65
2023-03-05T15:51:58.191Z,42.66
2023-03-05T16:02:04.523Z,42.63
2023-03-05T16:12:11.184Z,42.79
2023-03-05T16:22:18.209Z,42.68
2023-03-05T16:32:25.420Z,42.70
2023-03-05T16:42:32.686Z,42.81
2023-03-05T16:52:39.381Z,42.86
2023-03-05T17:02:46.739Z,42.85
2023-03-05T17:12:54.145Z,42.78
2023-03-05T17:23:01.092Z,42.98
2023-03-05T17:33:07.851Z,42.79
2023-03-05T17:43:14.796Z,42.29
2023-03-05T17:53:21.960Z,41.82
2023-03-05T18:03:28.900Z,42.37
2023-03-05T18:13:36.476Z,43.23
2023-03-05T18:23:43.802Z,43.65
2023-03-05T18:33:50.933Z,43.77
2023-03-05T18:43:57.974Z,43.86
2023-03-05T18:54:05.038Z,44.12
2023-03-05T19:04:12.051Z,44.25
2023-03-05T19:14:19.345Z,44.03
2023-03-05T19:24:26.103Z,43.91
2023-03-05T19:34:33.036Z,43.89
2023-03-05T19:44:39.463Z,43.95
2023-03-05T19:54:46.155Z,44.04
2023-03-05T20:04:52.413Z,44.07
2023-03-05T20:14:59.690Z,43.91
2023-03-05T20:25:06.559Z,43.80
2023-03-05T20:35:13.839Z,43.85
2023-03-05T20:45:20.263Z,43.76
2023-03-05T20:55:27.372Z,43.73
2023-03-05T21:05:34.532Z,43.73
2023-03-05T21:15:41.833Z,43.61
2023-03-05T21:25:48.739Z,43.48
2023-03-05T21:35:55.947Z,43.57
2023-03-05T21:46:03.194Z,43.72
2023-03-05T21:56:09.847Z,43.81
2023-03-05T22:06:16.919Z,43.76
2023-03-05T22:16:22.760Z,43.70
2023-03-05T22:26:30.288Z,43.44
2023-03-05T22:36:37.143Z,43.42
2023-03-05T22:46:43.452Z,43.64
2023-03-05T22:56:49.953Z,43.60
2023-03-05T23:06:57.083Z,43.55
2023-03-05T23:17:04.619Z,43.56
2023-03-05T23:27:11.689Z,43.53
2023-03-05T23:37:18.357Z,43.39
2023-03-05T23:47:25.640Z,43.13
2023-03-05T23:57:32.799Z,43.19
